createdAt,value
2023-10-20T00:03:10.955Z,98941.50
2023-10-20T00:07:13.161Z,98938.47
2023-10-20T00:11:15.376Z,98934.53
2023-10-20T00:15:20.889Z,98922.72
2023-10-20T00:19:23.216Z,98905.44
2023-10-20T00:23:25.587Z,98910.34
2023-10-20T00:27:27.691Z,98903.84
2023-10-20T00:31:31.215Z,98911.69
2023-10-20T00:35:33.383Z,98908.09
2023-10-20T00:39:36.351Z,98910.41
2023-10-20T00:43:39.401Z,98913.53
2023-10-20T00:47:42.516Z,98915.47
2023-10-20T00:51:44.794Z,98910.34
2023-10-20T00:55:47.403Z,98910.41
2023-10-20T00:59:49.595Z,98889.78
2023-10-20T01:03:51.996Z,98895.38
2023-10-20T01:07:54.447Z,98881.34
2023-10-20T01:11:58.116Z,98870.28
2023-10-20T01:16:00.338Z,98866.84
2023-10-20T01:20:07.531Z,98872.41
2023-10-20T01:24:11.212Z,98867.38
2023-10-20T01:28:14.461Z,98863.22
2023-10-20T01:32:16.558Z,98853.88
2023-10-20T01:36:19.005Z,98854.38
2023-10-20T01:40:21.057Z,98859.28
2023-10-20T01:44:23.504Z,98851.50
2023-10-20T01:48:25.636Z,98840.81
2023-10-20T01:52:27.919Z,98842.47
2023-10-20T01:56:30.202Z,98837.59
2023-10-20T02:00:32.507Z,98852.78
2023-10-20T02:04:34.800Z,98848.63
2023-10-20T02:08:38.969Z,98849.38
2023-10-20T02:12:41.108Z,98851.16
2023-10-20T02:16:43.247Z,98851.38
2023-10-20T02:20:45.317Z,98846.19
2023-10-20T02:24:47.818Z,98835.56
2023-10-20T02:28:49.725Z,98826.13
2023-10-20T02:32:51.943Z,98820.81
2023-10-20T02:36:54.164Z,98819.69
2023-10-20T02:40:57.732Z,98813.81
2023-10-20T02:45:00.280Z,98823.31
2023-10-20T02:49:02.156Z,98818.63
2023-10-20T02:53:04.746Z,98827.75
2023-10-20T02:57:06.888Z,98828.06
2023-10-20T03:01:10.520Z,98815.88
2023-10-20T03:05:13.169Z,98813.75
2023-10-20T03:09:15.303Z,98824.19
2023-10-20T03:13:18.476Z,98816.94
2023-10-20T03:17:21.267Z,98824.53
2023-10-20T03:21:24.572Z,98828.53
2023-10-20T03:25:27.388Z,98820.03
2023-10-20T03:29:29.563Z,98806.81
2023-10-20T03:33:33.779Z,98813.59
2023-10-20T03:37:35.798Z,98809.44
2023-10-20T03:41:38.047Z,98803.50
2023-10-20T03:45:49.812Z,98803.06
2023-10-20T03:49:52.903Z,98808.38
2023-10-20T03:53:56.254Z,98804.38
2023-10-20T03:57:58.280Z,98804.38
2023-10-20T04:02:00.269Z,98797.50
2023-10-20T04:06:09.182Z,98795.31
2023-10-20T04:10:11.262Z,98798.47
2023-10-20T04:14:13.690Z,98792.47
2023-10-20T04:18:17.042Z,98781.81
2023-10-20T04:22:19.094Z,98797.19
2023-10-20T04:26:23.981Z,98788.28
2023-10-20T04:30:44.975Z,98790.22
2023-10-20T04:35:18.927Z,98792.03
2023-10-20T04:39:39.144Z,98803.50
2023-10-20T04:43:43.747Z,98805.91
2023-10-20T04:48:05.589Z,98810.25
2023-10-20T04:52:26.940Z,98817.03
2023-10-20T04:56:56.860Z,98812.72
2023-10-20T05:01:06.065Z,98803.69
2023-10-20T05:05:18.084Z,98816.56
2023-10-20T05:09:20.322Z,98833.31
2023-10-20T05:13:23.445Z,98826.03
2023-10-20T05:17:26.241Z,98838.81
2023-10-20T05:21:29.294Z,98826.03
2023-10-20T05:25:31.332Z,98812.69
2023-10-20T05:29:33.399Z,98820.81
2023-10-20T05:33:35.524Z,98832.75
2023-10-20T05:37:37.562Z,98829.44
2023-10-20T05:41:39.518Z,98836.75
2023-10-20T05:45:42.320Z,98833.44
2023-10-20T05:49:44.382Z,98828.91
2023-10-20T05:53:46.561Z,98823.78
2023-10-20T05:57:48.867Z,98830.03
2023-10-20T06:01:50.925Z,98825.66
2023-10-20T06:05:52.895Z,98846.97
2023-10-20T06:09:55.397Z,98857.69
2023-10-20T06:13:57.489Z,98862.16
2023-10-20T06:17:59.548Z,98875.25
2023-10-20T06:22:01.767Z,98874.84
2023-10-20T06:26:03.925Z,98881.31
2023-10-20T06:30:15.612Z,98876.78
2023-10-20T06:34:26.422Z,98861.50
2023-10-20T06:38:32.127Z,98854.88
2023-10-20T06:42:34.406Z,98847.84
2023-10-20T06:46:36.456Z,98847.09
2023-10-20T06:50:38.686Z,98852.44
2023-10-20T06:54:40.751Z,98845.19
2023-10-20T06:58:42.979Z,98841.59
2023-10-20T07:02:45.170Z,98840.84
2023-10-20T07:06:47.351Z,98845.13
2023-10-20T07:10:51.488Z,98832.22
2023-10-20T07:14:53.730Z,98815.94
2023-10-20T07:18:55.867Z,98829.72
2023-10-20T07:22:58.576Z,98837.97
2023-10-20T07:27:02.791Z,98854.09
2023-10-20T07:31:15.160Z,98854.91
2023-10-20T07:35:17.461Z,98852.72
2023-10-20T07:39:19.498Z,98851.78
2023-10-20T07:43:22.964Z,98863.22
2023-10-20T07:47:25.634Z,98857.78
2023-10-20T07:51:28.083Z,98853.56
2023-10-20T07:55:30.319Z,98845.66
2023-10-20T07:59:32.880Z,98838.88
2023-10-20T08:03:35.386Z,98847.78
2023-10-20T08:07:39.934Z,98829.75
2023-10-20T08:11:43.416Z,98834.13
2023-10-20T08:15:45.757Z,98836.97
2023-10-20T08:19:48.087Z,98848.00
2023-10-20T08:23:50.191Z,98841.03
2023-10-20T08:27:52.536Z,98844.34
2023-10-20T08:31:54.604Z,98851.97
2023-10-20T08:35:56.861Z,98843.31
2023-10-20T08:39:58.859Z,98848.50
2023-10-20T08:44:02.404Z,98853.25
2023-10-20T08:48:07.161Z,98865.84
2023-10-20T08:52:11.698Z,98847.75
2023-10-20T08:56:14.319Z,98838.28
2023-10-20T09:00:23.374Z,98838.06
2023-10-20T09:04:27.346Z,98834.78
2023-10-20T09:08:29.678Z,98821.31
2023-10-20T09:12:33.302Z,98817.38
2023-10-20T09:16:35.817Z,98811.81
2023-10-20T09:20:38.214Z,98806.84
2023-10-20T09:24:42.503Z,98811.88
2023-10-20T09:28:49.386Z,98813.97
2023-10-20T09:32:51.376Z,98806.78
2023-10-20T09:36:54.386Z,98813.75
2023-10-20T09:41:09.111Z,98817.16
2023-10-20T09:45:18.980Z,98819.06
2023-10-20T09:49:24.398Z,98825.06
2023-10-20T09:53:27.263Z,98810.22
2023-10-20T09:57:29.678Z,98805.81
2023-10-20T10:01:32.272Z,98796.69
2023-10-20T10:05:34.892Z,98797.47
2023-10-20T10:09:39.064Z,98783.69
2023-10-20T10:13:41.200Z,98774.31
2023-10-20T10:17:47.928Z,98763.59
2023-10-20T10:21:54.539Z,98755.41
2023-10-20T10:25:56.713Z,98763.91
2023-10-20T10:30:01.528Z,98762.69
2023-10-20T10:34:07.342Z,98766.78
2023-10-20T10:38:23.528Z,98754.16
2023-10-20T10:42:28.837Z,98750.66
2023-10-20T10:46:36.107Z,98748.38
2023-10-20T10:50:43.140Z,98747.03
2023-10-20T10:54:45.380Z,98751.34
2023-10-20T10:58:47.559Z,98748.03
2023-10-20T11:02:50.272Z,98745.31
2023-10-20T11:06:52.176Z,98744.53
2023-10-20T11:10:54.164Z,98756.00
2023-10-20T11:15:04.986Z,98749.81
2023-10-20T11:19:07.158Z,98752.00
2023-10-20T11:23:10.436Z,98741.50
2023-10-20T11:27:14.021Z,98757.28
2023-10-20T11:31:16.449Z,98757.59
2023-10-20T11:35:18.660Z,98773.38
2023-10-20T11:39:25.855Z,98789.53
2023-10-20T11:43:27.999Z,98789.69
2023-10-20T11:47:30.054Z,98789.53
2023-10-20T11:51:32.423Z,98793.56
2023-10-20T11:55:34.664Z,98788.72
2023-10-20T11:59:36.858Z,98790.63
2023-10-20T12:03:39.743Z,98792.22
2023-10-20T12:07:41.854Z,98798.56
2023-10-20T12:11:44.299Z,98794.19
2023-10-20T12:15:46.354Z,98797.69
2023-10-20T12:19:50.303Z,98794.94
2023-10-20T12:23:52.532Z,98799.31
2023-10-20T12:27:54.564Z,98790.19
2023-10-20T12:31:58.000Z,98788.34
2023-10-20T12:36:00.395Z,98783.19
2023-10-20T12:40:02.612Z,98779.56
2023-10-20T12:44:05.458Z,98781.00
2023-10-20T12:48:08.245Z,98781.06
2023-10-20T12:52:10.267Z,98779.63
2023-10-20T12:56:12.264Z,98772.28
2023-10-20T13:00:14.814Z,98769.03
2023-10-20T13:04:17.899Z,98780.00
2023-10-20T13:08:20.025Z,98783.59
2023-10-20T13:12:23.474Z,98778.63
2023-10-20T13:16:25.466Z,98783.59
2023-10-20T13:20:27.842Z,98779.72
2023-10-20T13:24:29.866Z,98780.84
2023-10-20T13:28:35.763Z,98796.41
2023-10-20T13:32:37.788Z,98793.84
2023-10-20T13:36:39.953Z,98803.53
2023-10-20T13:40:42.041Z,98807.69
2023-10-20T13:44:44.362Z,98784.91
2023-10-20T13:48:46.683Z,98783.09
2023-10-20T13:52:48.804Z,98771.16
2023-10-20T13:56:50.890Z,98776.84
2023-10-20T14:00:53.059Z,98776.09
2023-10-20T14:04:55.073Z,98763.66
2023-10-20T14:08:57.206Z,98750.66
2023-10-20T14:12:59.424Z,98740.91
2023-10-20T14:17:07.656Z,98743.16
2023-10-20T14:21:09.941Z,98735.19
2023-10-20T14:25:12.276Z,98737.00
2023-10-20T14:29:17.134Z,98737.53
2023-10-20T14:33:19.306Z,98740.78
2023-10-20T14:37:21.570Z,98729.78
2023-10-20T14:41:24.101Z,98732.56
2023-10-20T14:45:26.132Z,98735.75
2023-10-20T14:49:27.874Z,98741.13
2023-10-20T14:53:29.933Z,98742.66
2023-10-20T14:57:32.354Z,98740.53
2023-10-20T15:01:34.622Z,98737.91
2023-10-20T15:05:39.165Z,98748.38
2023-10-20T15:09:41.155Z,98746.06
2023-10-20T15:13:44.599Z,98747.94
2023-10-20T15:17:46.941Z,98751.47
2023-10-20T15:21:48.957Z,98757.75
2023-10-20T15:25:50.977Z,98756.31
2023-10-20T15:29:53.198Z,98753.06
2023-10-20T15:33:55.446Z,98756.56
2023-10-20T15:37:58.338Z,98748.94
2023-10-20T15:42:00.459Z,98753.91
2023-10-20T15:46:07.914Z,98753.25
2023-10-20T15:50:13.361Z,98751.88
2023-10-20T15:54:19.901Z,98756.44
2023-10-20T15:58:23.857Z,98759.75
2023-10-20T16:02:26.177Z,98760.38
2023-10-20T16:06:28.308Z,98764.59
2023-10-20T16:10:30.494Z,98774.16
2023-10-20T16:14:32.535Z,98762.13
2023-10-20T16:18:35.234Z,98756.84
2023-10-20T16:22:37.296Z,98746.81
2023-10-20T16:26:39.474Z,98761.63
2023-10-20T16:30:41.569Z,98762.72
2023-10-20T16:34:43.632Z,98773.81
2023-10-20T16:38:45.882Z,98771.63
2023-10-20T16:42:48.190Z,98775.91
2023-10-20T16:46:51.054Z,98772.53
2023-10-20T16:50:59.682Z,98782.13
2023-10-20T16:55:01.899Z,98779.53
2023-10-20T16:59:04.178Z,98769.53
2023-10-20T17:03:07.075Z,98770.41
2023-10-20T17:07:09.627Z,98769.41
2023-10-20T17:11:12.360Z,98774.72
2023-10-20T17:15:14.811Z,98771.59
2023-10-20T17:19:16.895Z,98768.47
2023-10-20T17:23:19.111Z,98758.69
2023-10-20T17:27:21.234Z,98762.69
2023-10-20T17:31:23.507Z,98759.34
2023-10-20T17:35:25.521Z,98756.53
2023-10-20T17:39:27.700Z,98752.34
2023-10-20T17:43:30.471Z,98746.88
2023-10-20T17:47:33.208Z,98748.84
2023-10-20T17:51:36.074Z,98746.91
2023-10-20T17:55:39.897Z,98748.72
2023-10-20T17:59:41.968Z,98741.53
2023-10-20T18:03:44.682Z,98739.00
2023-10-20T18:07:46.934Z,98736.34
2023-10-20T18:11:49.116Z,98736.81
2023-10-20T18:15:51.204Z,98745.59
2023-10-20T18:19:53.476Z,98741.50
2023-10-20T18:23:59.156Z,98731.63
2023-10-20T18:28:01.976Z,98724.50
2023-10-20T18:32:04.542Z,98729.59
2023-10-20T18:36:07.245Z,98726.38
2023-10-20T18:40:09.739Z,98723.56
2023-10-20T18:44:11.927Z,98722.28
2023-10-20T18:48:14.184Z,98723.69
2023-10-20T18:52:16.456Z,98712.41
2023-10-20T18:56:18.579Z,98719.03
2023-10-20T19:00:20.913Z,98719.16
2023-10-20T19:04:23.145Z,98714.75
2023-10-20T19:08:25.660Z,98721.19
2023-10-20T19:12:27.737Z,98714.03
2023-10-20T19:16:34.214Z,98714.97
2023-10-20T19:20:37.033Z,98722.81
2023-10-20T19:24:39.257Z,98709.06
2023-10-20T19:28:42.267Z,98699.81
2023-10-20T19:32:44.644Z,98702.91
2023-10-20T19:36:46.868Z,98696.28
2023-10-20T19:40:49.045Z,98691.22
2023-10-20T19:44:51.152Z,98700.97
2023-10-20T19:48:53.425Z,98703.88
2023-10-20T19:52:55.495Z,98714.34
2023-10-20T19:56:57.740Z,98715.75
2023-10-20T20:01:01.748Z,98722.34
2023-10-20T20:05:06.292Z,98718.72
2023-10-20T20:09:09.199Z,98702.38
2023-10-20T20:13:11.471Z,98719.97
2023-10-20T20:17:13.545Z,98733.16
2023-10-20T20:21:15.676Z,98725.69
2023-10-20T20:25:17.872Z,98720.44
2023-10-20T20:29:19.974Z,98720.38
2023-10-20T20:33:22.150Z,98712.94
2023-10-20T20:37:24.366Z,98716.69
2023-10-20T20:41:26.267Z,98707.09
2023-10-20T20:45:28.394Z,98693.03
2023-10-20T20:49:31.501Z,98666.38
2023-10-20T20:53:33.618Z,98655.31
2023-10-20T20:57:35.614Z,98652.81
2023-10-20T21:01:39.104Z,98663.66
2023-10-20T21:05:41.194Z,98670.69
2023-10-20T21:09:44.320Z,98675.59
2023-10-20T21:13:46.387Z,98662.56
2023-10-20T21:17:48.624Z,98675.06
2023-10-20T21:21:50.624Z,98680.88
2023-10-20T21:25:52.933Z,98676.91
2023-10-20T21:29:55.070Z,98676.41
2023-10-20T21:33:57.380Z,98694.63
2023-10-20T21:37:59.437Z,98690.53
2023-10-20T21:42:04.141Z,98685.13
2023-10-20T21:46:08.246Z,98681.22
2023-10-20T21:50:10.677Z,98683.69
2023-10-20T21:54:12.793Z,98683.06
2023-10-20T21:58:14.968Z,98680.09
2023-10-20T22:02:16.658Z,98687.00
2023-10-20T22:06:19.142Z,98694.97
2023-10-20T22:10:21.182Z,98691.94
2023-10-20T22:14:23.327Z,98692.63
2023-10-20T22:18:25.463Z,98681.41
2023-10-20T22:22:27.702Z,98691.47
2023-10-20T22:26:30.114Z,98680.88
2023-10-20T22:30:33.045Z,98687.34
2023-10-20T22:34:35.115Z,98686.53
2023-10-20T22:38:37.282Z,98674.78
2023-10-20T22:42:39.430Z,98667.34
2023-10-20T22:46:41.558Z,98666.84
2023-10-20T22:50:43.228Z,98660.41
2023-10-20T22:54:45.228Z,98657.94
2023-10-20T22:58:47.520Z,98637.63
2023-10-20T23:02:49.936Z,98642.72
2023-10-20T23:06:53.715Z,98644.72
2023-10-20T23:10:56.769Z,98653.66
2023-10-20T23:14:59.400Z,98655.44
2023-10-20T23:19:01.642Z,98657.25
2023-10-20T23:23:05.026Z,98671.16
2023-10-20T23:27:07.318Z,98669.66
2023-10-20T23:31:09.379Z,98671.97
2023-10-20T23:35:11.238Z,98674.53
2023-10-20T23:39:13.340Z,98679.16
2023-10-20T23:43:15.496Z,98691.28
2023-10-20T23:47:17.708Z,98691.09
2023-10-20T23:51:20.694Z,98693.19
2023-10-20T23:55:26.346Z,98692.63
2023-10-20T23:59:28.536Z,98689.72
